createdAt,value
2022-10-14T00:02:10.979Z,14.31
2022-10-14T00:07:10.755Z,14.29
2022-10-14T00:12:10.770Z,14.28
2022-10-14T00:17:10.766Z,14.29
2022-10-14T00:22:10.979Z,14.29
2022-10-14T00:27:10.768Z,14.28
2022-10-14T00:32:10.806Z,14.28
2022-10-14T00:37:10.770Z,14.28
2022-10-14T00:42:10.809Z,14.29
2022-10-14T00:47:12.691Z,14.28
2022-10-14T00:52:12.856Z,14.26
2022-10-14T00:57:13.063Z,14.26
2022-10-14T01:02:12.887Z,14.25
2022-10-14T01:07:12.797Z,14.24
2022-10-14T01:12:29.728Z,14.22
2022-10-14T01:17:14.957Z,14.20
2022-10-14T01:22:18.705Z,14.19
2022-10-14T01:27:16.891Z,14.18
2022-10-14T01:32:16.950Z,14.17
2022-10-14T01:37:16.854Z,14.15
2022-10-14T01:42:17.235Z,14.13
2022-10-14T01:47:16.925Z,14.09
2022-10-14T01:52:18.868Z,14.06
2022-10-14T01:57:18.835Z,14.05
2022-10-14T02:02:19.073Z,14.04
2022-10-14T02:07:20.253Z,14.03
2022-10-14T02:12:20.284Z,14.02
2022-10-14T02:17:20.844Z,14.03
2022-10-14T02:22:21.125Z,14.05
2022-10-14T02:27:21.487Z,14.07
2022-10-14T02:32:24.260Z,14.10
2022-10-14T02:37:24.954Z,14.12
2022-10-14T02:42:24.891Z,14.12
2022-10-14T02:47:24.961Z,14.13
2022-10-14T02:52:26.679Z,14.15
2022-10-14T02:57:28.843Z,14.17
2022-10-14T03:02:31.011Z,14.18
2022-10-14T03:07:32.796Z,14.19
2022-10-14T03:12:33.688Z,14.20
2022-10-14T03:17:35.838Z,14.21
2022-10-14T03:22:36.448Z,14.21
2022-10-14T03:27:37.847Z,14.20
2022-10-14T03:32:45.737Z,14.20
2022-10-14T03:37:46.582Z,14.20
2022-10-14T03:42:48.435Z,14.21
2022-10-14T03:47:48.179Z,14.23
2022-10-14T03:52:56.004Z,14.24
2022-10-14T03:57:56.894Z,14.26
2022-10-14T04:02:58.965Z,14.26
2022-10-14T04:07:59.852Z,14.25
2022-10-14T04:13:04.939Z,14.24
2022-10-14T04:18:05.407Z,14.24
2022-10-14T04:23:06.801Z,14.24
2022-10-14T04:28:24.205Z,14.25
2022-10-14T04:33:24.492Z,14.27
2022-10-14T04:38:28.745Z,14.29
2022-10-14T04:43:30.811Z,14.31
2022-10-14T04:48:31.502Z,14.32
2022-10-14T04:53:45.134Z,14.33
2022-10-14T04:58:45.050Z,14.34
2022-10-14T05:03:45.477Z,14.35
2022-10-14T05:08:46.576Z,14.33
2022-10-14T05:13:46.141Z,14.30
2022-10-14T05:18:47.647Z,14.30
2022-10-14T05:23:48.390Z,14.29
2022-10-14T05:28:48.758Z,14.28
2022-10-14T05:33:49.726Z,14.28
2022-10-14T05:38:52.097Z,14.28
2022-10-14T05:43:52.580Z,14.29
2022-10-14T05:48:52.129Z,14.33
2022-10-14T05:53:52.396Z,14.37
2022-10-14T05:58:52.172Z,14.41
2022-10-14T06:03:52.144Z,14.45
2022-10-14T06:08:53.915Z,14.49
2022-10-14T06:13:54.146Z,14.56
2022-10-14T06:18:54.805Z,14.66
2022-10-14T06:23:55.117Z,14.78
2022-10-14T06:28:55.200Z,14.87
2022-10-14T06:33:55.057Z,14.91
2022-10-14T06:38:55.000Z,14.92
2022-10-14T06:43:55.233Z,14.92
2022-10-14T06:48:55.032Z,14.94
2022-10-14T06:53:58.108Z,14.98
2022-10-14T06:58:58.033Z,15.03
2022-10-14T07:03:58.146Z,15.06
2022-10-14T07:08:58.133Z,15.11
2022-10-14T07:13:58.866Z,15.18
2022-10-14T07:18:59.078Z,15.23
2022-10-14T07:23:59.061Z,15.26
2022-10-14T07:28:59.151Z,15.30
2022-10-14T07:33:59.176Z,15.36
2022-10-14T07:38:59.159Z,15.43
2022-10-14T07:44:01.565Z,15.49
2022-10-14T07:49:01.172Z,15.54
2022-10-14T07:54:01.106Z,15.64
2022-10-14T07:59:01.156Z,15.75
2022-10-14T08:04:01.133Z,15.83
2022-10-14T08:09:01.126Z,15.88
2022-10-14T08:14:01.343Z,15.89
2022-10-14T08:19:01.282Z,15.92
2022-10-14T08:24:01.114Z,15.96
2022-10-14T08:29:01.222Z,16.02
2022-10-14T08:34:01.507Z,16.18
2022-10-14T08:39:01.364Z,16.52
2022-10-14T08:44:01.207Z,17.02
2022-10-14T08:49:01.212Z,17.41
2022-10-14T08:54:03.377Z,17.57
2022-10-14T08:59:03.207Z,17.69
2022-10-14T09:04:03.229Z,17.86
2022-10-14T09:09:03.197Z,18.04
2022-10-14T09:14:03.225Z,18.25
2022-10-14T09:19:03.138Z,18.41
2022-10-14T09:24:03.195Z,18.50
2022-10-14T09:29:03.214Z,18.58
2022-10-14T09:34:03.157Z,18.71
2022-10-14T09:39:05.509Z,18.78
2022-10-14T09:44:05.151Z,18.74
2022-10-14T09:49:05.188Z,18.68
2022-10-14T09:54:05.200Z,18.69
2022-10-14T09:59:05.182Z,18.75
2022-10-14T10:04:08.297Z,18.86
2022-10-14T10:09:08.330Z,19.06
2022-10-14T10:14:08.281Z,19.28
2022-10-14T10:19:08.491Z,19.47
2022-10-14T10:24:08.231Z,19.53
2022-10-14T10:29:08.236Z,19.49
2022-10-14T10:34:08.175Z,19.40
2022-10-14T10:39:08.287Z,19.27
2022-10-14T10:44:08.591Z,19.17
2022-10-14T10:49:08.186Z,19.22
2022-10-14T10:54:08.216Z,19.33
2022-10-14T10:59:08.309Z,19.37
2022-10-14T11:04:08.420Z,19.37
2022-10-14T11:09:26.628Z,19.42
2022-10-14T11:14:26.305Z,19.62
2022-10-14T11:19:26.533Z,20.01
2022-10-14T11:24:26.267Z,20.35
2022-10-14T11:29:26.298Z,20.50
2022-10-14T11:34:27.499Z,20.46
2022-10-14T11:39:29.609Z,20.32
2022-10-14T11:44:29.346Z,20.26
2022-10-14T11:49:29.295Z,20.26
2022-10-14T11:54:32.275Z,20.28
2022-10-14T11:59:34.147Z,20.18
2022-10-14T12:04:34.339Z,19.98
2022-10-14T12:14:37.297Z,19.65
2022-10-14T12:19:37.369Z,19.55
2022-10-14T12:24:37.374Z,19.48
2022-10-14T12:29:37.381Z,19.37
2022-10-14T12:34:38.620Z,19.25
2022-10-14T12:39:38.348Z,19.09
2022-10-14T12:44:38.420Z,18.94
2022-10-14T12:49:38.335Z,18.90
2022-10-14T12:54:38.371Z,18.88
2022-10-14T12:59:38.289Z,18.78
2022-10-14T13:04:38.398Z,18.70
2022-10-14T13:09:38.595Z,18.66
2022-10-14T13:14:38.319Z,18.56
2022-10-14T13:19:38.358Z,18.44
2022-10-14T13:24:38.565Z,18.33
2022-10-14T13:29:38.414Z,18.18
2022-10-14T13:34:38.338Z,18.04
2022-10-14T13:39:38.394Z,17.94
2022-10-14T13:44:38.485Z,17.88
2022-10-14T13:49:40.005Z,17.93
2022-10-14T13:54:40.332Z,18.06
2022-10-14T13:59:46.863Z,18.13
2022-10-14T14:04:42.341Z,18.11
2022-10-14T14:09:42.706Z,18.10
2022-10-14T14:14:42.434Z,18.09
2022-10-14T14:19:42.486Z,18.04
2022-10-14T14:24:42.341Z,17.92
2022-10-14T14:29:42.375Z,17.77
2022-10-14T14:34:42.568Z,17.63
2022-10-14T14:39:42.401Z,17.50
2022-10-14T14:44:43.456Z,17.42
2022-10-14T14:49:45.570Z,17.41
2022-10-14T14:54:45.637Z,17.43
2022-10-14T14:59:46.113Z,17.38
2022-10-14T15:04:47.750Z,17.33
2022-10-14T15:09:47.461Z,17.35
2022-10-14T15:14:47.555Z,17.39
2022-10-14T15:19:47.398Z,17.45
2022-10-14T15:24:47.428Z,17.50
2022-10-14T15:29:50.574Z,17.53
2022-10-14T15:34:51.792Z,17.48
2022-10-14T15:39:51.645Z,17.38
2022-10-14T15:44:51.575Z,17.30
2022-10-14T15:49:54.685Z,17.22
2022-10-14T15:54:55.541Z,17.13
2022-10-14T15:59:56.990Z,17.05
2022-10-14T16:09:58.534Z,16.95
2022-10-14T16:15:00.997Z,16.89
2022-10-14T16:20:01.603Z,16.82
2022-10-14T16:25:01.494Z,16.76
2022-10-14T16:30:02.225Z,16.71
2022-10-14T16:35:04.816Z,16.66
2022-10-14T16:40:04.677Z,16.58
2022-10-14T16:45:04.522Z,16.45
2022-10-14T16:50:04.557Z,16.31
2022-10-14T16:55:04.504Z,16.19
2022-10-14T17:00:04.568Z,16.10
2022-10-14T17:05:04.547Z,16.02
2022-10-14T17:10:04.860Z,15.94
2022-10-14T17:15:05.436Z,15.84
2022-10-14T17:20:05.592Z,15.77
2022-10-14T17:25:07.389Z,15.75
2022-10-14T17:30:07.600Z,15.76
2022-10-14T17:35:10.266Z,15.76
2022-10-14T17:40:10.603Z,15.75
2022-10-14T17:45:10.646Z,15.75
2022-10-14T17:50:11.218Z,15.78
2022-10-14T17:55:11.618Z,15.82
2022-10-14T18:00:14.204Z,15.86
2022-10-14T18:05:14.556Z,15.90
2022-10-14T18:10:14.766Z,15.93
2022-10-14T18:15:14.637Z,15.89
2022-10-14T18:20:14.606Z,15.81
2022-10-14T18:25:14.997Z,15.74
2022-10-14T18:30:14.557Z,15.71
2022-10-14T18:35:14.584Z,15.70
2022-10-14T18:40:16.501Z,15.70
2022-10-14T18:45:16.895Z,15.71
2022-10-14T18:50:16.652Z,15.73
2022-10-14T18:55:16.597Z,15.74
2022-10-14T19:00:16.626Z,15.76
2022-10-14T19:05:17.253Z,15.77
2022-10-14T19:10:17.617Z,15.78
2022-10-14T19:15:18.251Z,15.78
2022-10-14T19:20:18.614Z,15.79
2022-10-14T19:25:20.060Z,15.81
2022-10-14T19:30:19.744Z,15.81
2022-10-14T19:35:21.131Z,15.82
2022-10-14T19:40:23.605Z,15.81
2022-10-14T19:45:22.657Z,15.80
2022-10-14T19:50:22.613Z,15.79
2022-10-14T19:55:22.658Z,15.79
2022-10-14T20:00:22.626Z,15.78
2022-10-14T20:05:22.640Z,15.77
2022-10-14T20:10:22.712Z,15.74
2022-10-14T20:15:22.793Z,15.71
2022-10-14T20:20:22.622Z,15.67
2022-10-14T20:25:22.675Z,15.64
2022-10-14T20:30:22.745Z,15.62
2022-10-14T20:35:22.872Z,15.62
2022-10-14T20:40:22.680Z,15.62
2022-10-14T20:45:22.920Z,15.63
2022-10-14T20:50:22.611Z,15.65
2022-10-14T20:55:22.646Z,15.65
2022-10-14T21:00:22.684Z,15.65
2022-10-14T21:05:22.842Z,15.66
2022-10-14T21:10:23.927Z,15.69
2022-10-14T21:15:26.249Z,15.73
2022-10-14T21:20:25.725Z,15.77
2022-10-14T21:25:25.770Z,15.80
2022-10-14T21:30:25.780Z,15.83
2022-10-14T21:35:25.707Z,15.86
2022-10-14T21:40:25.648Z,15.88
2022-10-14T21:45:25.663Z,15.90
2022-10-14T21:50:25.934Z,15.92
2022-10-14T21:55:25.740Z,15.94
2022-10-14T22:00:25.694Z,15.96
2022-10-14T22:05:25.712Z,15.97
2022-10-14T22:10:40.975Z,15.99
2022-10-14T22:15:41.250Z,16.01
2022-10-14T22:20:40.824Z,16.03
2022-10-14T22:25:40.719Z,16.03
2022-10-14T22:30:40.760Z,16.03
2022-10-14T22:35:40.791Z,16.04
2022-10-14T22:40:40.704Z,16.05
2022-10-14T22:45:40.757Z,16.05
2022-10-14T22:50:40.785Z,16.04
2022-10-14T22:55:40.834Z,16.01
2022-10-14T23:00:40.712Z,15.97
2022-10-14T23:05:40.793Z,15.95
2022-10-14T23:10:40.844Z,15.94
2022-10-14T23:15:40.713Z,15.94
2022-10-14T23:20:40.766Z,15.94
2022-10-14T23:25:40.908Z,15.95
2022-10-14T23:30:40.763Z,15.96
2022-10-14T23:35:40.809Z,15.94
2022-10-14T23:40:40.845Z,15.90
2022-10-14T23:45:40.843Z,15.85
2022-10-14T23:50:41.004Z,15.82
2022-10-14T23:55:40.844Z,15.80
